Rechercher aéroport 
image banner adimage banner adimage banner ad
image banner ad

83CA - The Met

Situé à Costa Mesa, United States

ICAO - 83CA, IATA -

Données fournies par Airmate  

Information générale

Coordonnées: N33°41'19" W117°52'41"
Élévation : 204 feet MSL.
Variation magnétique : 14° East
Voir autres Aéroports à California

Données opérationnelles

Special qualification required
Heure actuelle UTC:
Heure actuelle locale:
METAR: KSNA 020653Z AUTO 18005KT 10SM CLR 20/14 A3002 RMK AO2 SLP164 T02000144
TAF: KSNA 020520Z 0206/0306 VRB04KT P6SM SKC FM021900 23008KT P6SM SKC FM030200 VRB05KT P6SM SKC
Voir NOTAMs / SUP AIP / TFR affectant cet aéroport [VIEW]
Fréquences de communication: [VIEW]

Pistes:

Coordonnées de l'aéroport

Adresse: Costa Mesa United States

Vue satellite de 83CA